createdAt,value
2018-07-16T00:00:36.894Z,22.69
2018-07-16T00:03:05.705Z,22.66
2018-07-16T00:05:34.187Z,22.61
2018-07-16T00:08:02.757Z,22.57
2018-07-16T00:10:31.679Z,22.55
2018-07-16T00:13:00.375Z,22.52
2018-07-16T00:15:28.862Z,22.49
2018-07-16T00:17:57.477Z,22.44
2018-07-16T00:20:26.227Z,22.43
2018-07-16T00:22:54.899Z,22.42
2018-07-16T00:25:23.527Z,22.40
2018-07-16T00:27:52.781Z,22.37
2018-07-16T00:30:21.526Z,22.30
2018-07-16T00:32:49.969Z,22.27
2018-07-16T00:35:18.733Z,22.24
2018-07-16T00:37:48.010Z,22.20
2018-07-16T00:40:16.552Z,22.17
2018-07-16T00:42:45.496Z,22.15
2018-07-16T00:45:14.221Z,22.13
2018-07-16T00:47:42.916Z,22.10
2018-07-16T00:50:11.449Z,22.10
2018-07-16T00:52:40.405Z,22.08
2018-07-16T00:55:08.865Z,22.07
2018-07-16T00:57:37.508Z,22.04
2018-07-16T01:00:06.075Z,22.00
2018-07-16T01:02:35.009Z,21.97
2018-07-16T01:05:03.723Z,21.95
2018-07-16T01:07:32.366Z,21.91
2018-07-16T01:10:00.812Z,21.88
2018-07-16T01:12:29.773Z,21.83
2018-07-16T01:14:58.261Z,21.81
2018-07-16T01:17:26.738Z,21.78
2018-07-16T01:19:55.677Z,21.76
2018-07-16T01:22:24.535Z,21.73
2018-07-16T01:24:52.999Z,21.71
2018-07-16T01:27:21.829Z,21.69
2018-07-16T01:29:50.583Z,21.63
2018-07-16T01:32:19.015Z,21.59
2018-07-16T01:34:47.790Z,21.56
2018-07-16T01:37:16.616Z,21.54
2018-07-16T01:39:46.102Z,21.52
2018-07-16T01:42:14.780Z,21.50
2018-07-16T01:44:43.269Z,21.49
2018-07-16T01:47:12.529Z,21.46
2018-07-16T01:49:40.997Z,21.46
2018-07-16T01:52:09.478Z,21.42
2018-07-16T01:54:38.152Z,21.39
2018-07-16T01:57:06.745Z,21.38
2018-07-16T01:59:35.213Z,21.37
2018-07-16T02:02:03.845Z,21.34
2018-07-16T02:04:32.709Z,21.34
2018-07-16T02:07:01.165Z,21.32
2018-07-16T02:09:29.631Z,21.30
2018-07-16T02:11:58.522Z,21.29
2018-07-16T02:14:27.289Z,21.25
2018-07-16T02:16:55.740Z,21.22
2018-07-16T02:19:24.537Z,21.21
2018-07-16T02:21:53.257Z,21.21
2018-07-16T02:24:21.705Z,21.19
2018-07-16T02:26:50.481Z,21.18
2018-07-16T02:36:10.333Z,21.11
2018-07-16T02:38:38.830Z,21.11
2018-07-16T02:41:07.307Z,21.11
2018-07-16T02:43:36.313Z,20.99
2018-07-16T02:46:04.786Z,21.15
2018-07-16T02:48:33.225Z,21.17
2018-07-16T02:51:02.062Z,21.21
2018-07-16T02:53:30.506Z,21.25
2018-07-16T02:55:59.649Z,21.32
2018-07-16T02:58:29.326Z,21.39
2018-07-16T03:00:58.103Z,21.43
2018-07-16T03:03:26.545Z,21.49
2018-07-16T03:05:55.409Z,21.51
2018-07-16T03:08:24.177Z,21.52
2018-07-16T03:10:52.625Z,21.53
2018-07-16T03:13:21.765Z,21.55
2018-07-16T03:15:50.590Z,21.56
2018-07-16T03:18:19.033Z,21.60
2018-07-16T03:20:48.121Z,21.60
2018-07-16T03:23:16.889Z,21.61
2018-07-16T03:25:45.341Z,21.64
2018-07-16T03:28:14.278Z,21.70
2018-07-16T03:30:42.957Z,21.72
2018-07-16T03:33:11.671Z,21.80
2018-07-16T03:35:40.541Z,21.84
2018-07-16T03:38:08.987Z,21.89
2018-07-16T03:40:37.725Z,21.93
2018-07-16T03:43:06.682Z,21.93
2018-07-16T03:45:35.121Z,21.92
2018-07-16T03:48:03.794Z,21.96
2018-07-16T03:50:32.717Z,22.07
2018-07-16T03:53:01.458Z,22.13
2018-07-16T03:55:29.930Z,22.18
2018-07-16T03:57:59.551Z,22.23
2018-07-16T04:00:28.019Z,22.33
2018-07-16T04:02:56.457Z,22.43
2018-07-16T04:05:25.675Z,22.50
2018-07-16T04:07:54.469Z,22.61
2018-07-16T04:10:23.186Z,22.66
2018-07-16T04:12:52.057Z,22.72
2018-07-16T04:15:20.505Z,22.70
2018-07-16T04:17:49.303Z,22.76
2018-07-16T04:20:18.204Z,22.83
2018-07-16T04:22:46.884Z,22.76
2018-07-16T04:25:15.885Z,22.88
2018-07-16T04:27:44.427Z,22.92
2018-07-16T04:30:12.890Z,22.95
2018-07-16T04:32:41.469Z,23.01
2018-07-16T04:35:10.201Z,23.06
2018-07-16T04:37:38.649Z,23.08
2018-07-16T04:40:07.221Z,23.08
2018-07-16T04:42:36.262Z,23.10
2018-07-16T04:45:04.740Z,23.12
2018-07-16T04:47:33.177Z,23.18
2018-07-16T04:50:02.110Z,23.20
2018-07-16T04:52:30.575Z,23.21
2018-07-16T04:54:59.036Z,23.23
2018-07-16T04:57:28.391Z,23.29
2018-07-16T04:59:57.297Z,23.36
2018-07-16T05:02:25.732Z,23.40
2018-07-16T05:04:54.525Z,23.44
2018-07-16T05:07:23.529Z,23.47
2018-07-16T05:09:52.016Z,23.41
2018-07-16T05:12:20.890Z,23.46
2018-07-16T05:14:49.893Z,23.49
2018-07-16T05:17:18.578Z,23.52
2018-07-16T05:19:47.555Z,23.41
2018-07-16T05:22:16.297Z,23.50
2018-07-16T05:24:45.019Z,23.53
2018-07-16T05:27:13.821Z,23.55
2018-07-16T05:29:42.591Z,23.56
2018-07-16T05:32:11.784Z,23.61
2018-07-16T05:34:40.744Z,23.64
2018-07-16T05:37:09.232Z,23.68
2018-07-16T05:39:37.676Z,23.71
2018-07-16T05:42:06.574Z,23.75
2018-07-16T05:44:35.053Z,23.77
2018-07-16T05:47:03.637Z,23.80
2018-07-16T05:49:32.305Z,23.85
2018-07-16T05:52:01.122Z,23.89
2018-07-16T05:54:29.793Z,23.93
2018-07-16T05:56:58.381Z,23.98
2018-07-16T05:59:27.248Z,24.03
2018-07-16T06:01:55.878Z,24.10
2018-07-16T06:04:24.447Z,24.16
2018-07-16T06:06:53.214Z,24.20
2018-07-16T06:09:21.753Z,24.20
2018-07-16T06:11:50.356Z,24.23
2018-07-16T06:14:18.789Z,24.28
2018-07-16T06:16:47.480Z,24.37
2018-07-16T06:19:16.030Z,24.44
2018-07-16T06:21:44.525Z,24.47
2018-07-16T06:24:13.201Z,24.54
2018-07-16T06:26:42.586Z,24.61
2018-07-16T06:29:11.017Z,24.66
2018-07-16T06:31:39.757Z,24.70
2018-07-16T06:34:08.664Z,24.64
2018-07-16T06:36:37.101Z,24.81
2018-07-16T06:39:06.078Z,24.88
2018-07-16T06:41:35.658Z,24.97
2018-07-16T06:44:03.812Z,25.02
2018-07-16T06:46:32.337Z,25.07
2018-07-16T06:49:01.094Z,25.12
2018-07-16T06:51:29.574Z,25.19
2018-07-16T06:53:57.998Z,25.24
2018-07-16T06:56:26.622Z,25.31
2018-07-16T06:58:55.609Z,25.41
2018-07-16T07:01:24.038Z,25.49
2018-07-16T07:03:53.164Z,25.61
2018-07-16T07:06:21.732Z,25.74
2018-07-16T07:08:50.162Z,25.85
2018-07-16T07:11:19.538Z,25.97
2018-07-16T07:13:48.317Z,26.15
2018-07-16T07:16:16.981Z,26.27
2018-07-16T07:18:45.991Z,26.39
2018-07-16T07:21:14.450Z,26.54
2018-07-16T07:23:43.303Z,26.68
2018-07-16T07:26:12.277Z,26.83
2018-07-16T07:28:40.911Z,26.99
2018-07-16T07:31:09.524Z,27.20
2018-07-16T07:33:38.251Z,27.45
2018-07-16T07:36:06.754Z,27.75
2018-07-16T07:38:35.175Z,28.08
2018-07-16T07:41:04.165Z,28.63
2018-07-16T07:43:32.618Z,29.35
2018-07-16T07:46:01.064Z,30.17
2018-07-16T07:48:30.450Z,30.92
2018-07-16T07:50:58.963Z,31.53
2018-07-16T07:53:27.433Z,32.11
2018-07-16T07:55:56.192Z,32.59
2018-07-16T07:58:25.035Z,33.07
2018-07-16T08:00:53.663Z,33.53
2018-07-16T08:03:22.938Z,33.90
2018-07-16T08:05:57.363Z,34.27
2018-07-16T08:08:25.878Z,34.51
2018-07-16T08:10:54.868Z,34.79
2018-07-16T08:13:23.555Z,35.07
2018-07-16T08:15:52.642Z,35.37
2018-07-16T08:18:21.730Z,35.67
2018-07-16T08:20:50.271Z,35.78
2018-07-16T08:23:18.931Z,35.96
2018-07-16T08:25:47.421Z,36.25
2018-07-16T08:28:16.059Z,36.49
2018-07-16T08:30:44.857Z,36.65
2018-07-16T08:33:13.669Z,36.71
2018-07-16T08:35:42.202Z,36.83
2018-07-16T08:38:11.929Z,36.94
2018-07-16T08:40:40.511Z,37.03
2018-07-16T08:43:09.010Z,37.26
2018-07-16T08:45:37.869Z,37.46
2018-07-16T08:48:06.657Z,37.75
2018-07-16T08:50:35.113Z,38.01
2018-07-16T08:53:04.434Z,38.15
2018-07-16T08:55:33.353Z,38.23
2018-07-16T08:58:02.094Z,38.32
2018-07-16T09:00:31.001Z,38.45
2018-07-16T09:02:59.705Z,38.49
2018-07-16T09:05:28.389Z,38.43
2018-07-16T09:07:57.264Z,38.52
2018-07-16T09:10:25.717Z,38.80
2018-07-16T09:12:55.134Z,38.93
2018-07-16T09:15:23.897Z,38.67
2018-07-16T09:17:52.700Z,38.16
2018-07-16T09:20:21.733Z,38.22
2018-07-16T09:22:50.204Z,38.51
2018-07-16T09:25:18.740Z,38.79
2018-07-16T09:27:47.745Z,38.69
2018-07-16T09:30:17.478Z,38.73
2018-07-16T09:32:46.039Z,38.76
2018-07-16T09:35:14.778Z,38.54
2018-07-16T09:37:43.740Z,38.45
2018-07-16T09:40:12.485Z,38.47
2018-07-16T09:42:41.133Z,38.89
2018-07-16T09:45:10.018Z,39.27
2018-07-16T09:47:38.777Z,39.56
2018-07-16T09:50:07.312Z,39.60
2018-07-16T09:52:36.178Z,39.56
2018-07-16T09:55:04.922Z,39.49
2018-07-16T09:57:33.562Z,39.48
2018-07-16T10:00:02.040Z,39.62
2018-07-16T10:02:30.476Z,39.76
2018-07-16T10:04:58.987Z,39.84
2018-07-16T10:07:27.745Z,40.10
2018-07-16T10:09:56.521Z,40.35
2018-07-16T10:12:24.974Z,40.26
2018-07-16T10:14:53.925Z,40.04
2018-07-16T10:17:23.022Z,40.04
2018-07-16T10:19:51.737Z,40.10
2018-07-16T10:22:20.681Z,40.26
2018-07-16T10:24:49.272Z,39.51
2018-07-16T10:27:18.669Z,39.15
2018-07-16T10:29:47.872Z,39.29
2018-07-16T10:32:16.685Z,39.59
2018-07-16T10:34:45.661Z,39.78
2018-07-16T10:37:14.546Z,39.58
2018-07-16T10:39:43.001Z,39.20
2018-07-16T10:42:11.807Z,39.14
2018-07-16T10:44:40.365Z,39.37
2018-07-16T10:47:09.182Z,39.79
2018-07-16T10:49:37.777Z,40.07
2018-07-16T10:52:06.889Z,40.16
2018-07-16T10:54:35.329Z,40.18
2018-07-16T10:57:03.873Z,40.08
2018-07-16T10:59:32.538Z,40.15
2018-07-16T11:02:01.099Z,40.28
2018-07-16T11:04:29.737Z,40.05
2018-07-16T11:06:58.608Z,39.88
2018-07-16T11:09:27.249Z,40.05
2018-07-16T11:11:56.074Z,40.16
2018-07-16T11:14:25.135Z,40.01
2018-07-16T11:16:53.614Z,39.81
2018-07-16T11:19:22.090Z,39.85
2018-07-16T11:21:51.122Z,40.00
2018-07-16T11:24:20.313Z,40.02
2018-07-16T11:26:48.997Z,39.97
2018-07-16T11:29:17.909Z,39.73
2018-07-16T11:31:46.948Z,39.72
2018-07-16T11:34:16.099Z,39.85
2018-07-16T11:36:44.933Z,39.70
2018-07-16T11:39:13.505Z,39.47
2018-07-16T11:41:42.048Z,39.42
2018-07-16T11:44:10.686Z,39.47
2018-07-16T11:46:39.113Z,39.38
2018-07-16T11:49:07.714Z,39.45
2018-07-16T11:51:36.344Z,39.35
2018-07-16T11:54:05.097Z,39.12
2018-07-16T11:56:33.638Z,39.13
2018-07-16T11:59:02.827Z,39.16
2018-07-16T12:01:31.225Z,39.06
2018-07-16T12:03:59.701Z,38.78
2018-07-16T12:06:28.894Z,38.64
2018-07-16T12:08:57.327Z,38.76
2018-07-16T12:11:25.815Z,38.65
2018-07-16T12:13:55.050Z,38.60
2018-07-16T12:16:23.477Z,38.52
2018-07-16T12:18:51.997Z,38.51
2018-07-16T12:21:20.874Z,38.71
2018-07-16T12:23:49.330Z,38.83
2018-07-16T12:26:17.927Z,38.97
2018-07-16T12:28:48.024Z,39.13
2018-07-16T12:31:16.938Z,39.25
2018-07-16T12:33:45.677Z,39.41
2018-07-16T12:36:14.525Z,39.64
2018-07-16T12:38:43.311Z,39.72
2018-07-16T12:41:11.761Z,39.82
2018-07-16T12:43:40.581Z,40.05
2018-07-16T12:46:09.133Z,40.21
2018-07-16T12:48:37.566Z,39.86
2018-07-16T12:51:06.719Z,39.45
2018-07-16T12:53:35.458Z,39.62
2018-07-16T12:56:03.891Z,39.80
2018-07-16T12:58:32.706Z,39.99
2018-07-16T13:01:01.672Z,39.99
2018-07-16T13:03:30.475Z,40.12
2018-07-16T13:05:58.954Z,40.31
2018-07-16T13:08:27.409Z,40.48
2018-07-16T13:10:56.502Z,40.72
2018-07-16T13:13:25.434Z,40.80
2018-07-16T13:15:54.042Z,40.66
2018-07-16T13:18:22.865Z,40.79
2018-07-16T13:20:51.386Z,40.76
2018-07-16T13:23:19.825Z,40.70
2018-07-16T13:25:48.646Z,40.84
2018-07-16T13:28:17.257Z,40.98
2018-07-16T13:30:45.690Z,40.37
2018-07-16T13:33:14.377Z,40.22
2018-07-16T13:35:43.301Z,40.32
2018-07-16T13:38:11.772Z,40.41
2018-07-16T13:40:40.470Z,40.71
2018-07-16T13:43:09.669Z,40.96
2018-07-16T13:45:38.283Z,41.09
2018-07-16T13:48:07.109Z,41.18
2018-07-16T13:50:35.803Z,41.36
2018-07-16T13:53:05.194Z,41.33
2018-07-16T13:55:34.068Z,41.33
2018-07-16T13:58:03.301Z,41.57
2018-07-16T14:00:31.765Z,41.90
2018-07-16T14:03:00.666Z,41.99
2018-07-16T14:05:29.374Z,42.09
2018-07-16T14:07:57.985Z,42.20
2018-07-16T14:10:27.135Z,42.23
2018-07-16T14:12:55.784Z,42.03
2018-07-16T14:15:24.521Z,41.96
2018-07-16T14:17:53.622Z,42.22
2018-07-16T14:20:22.370Z,42.37
2018-07-16T14:22:50.793Z,42.57
2018-07-16T14:25:19.274Z,42.49
2018-07-16T14:27:49.778Z,42.49
2018-07-16T14:30:18.911Z,42.82
2018-07-16T14:32:47.382Z,42.93
2018-07-16T14:35:16.675Z,42.89
2018-07-16T14:37:45.793Z,42.77
2018-07-16T14:40:14.230Z,42.76
2018-07-16T14:42:43.025Z,42.49
2018-07-16T14:45:11.861Z,42.51
2018-07-16T14:47:40.556Z,42.44
2018-07-16T14:50:09.396Z,42.54
2018-07-16T14:52:38.138Z,42.68
2018-07-16T14:55:06.974Z,42.78
2018-07-16T14:57:35.745Z,42.88
2018-07-16T15:00:04.875Z,42.87
2018-07-16T15:02:33.345Z,42.76
2018-07-16T15:05:02.417Z,42.56
2018-07-16T15:07:31.267Z,42.48
2018-07-16T15:10:00.185Z,42.30
2018-07-16T15:12:29.086Z,42.17
2018-07-16T15:14:57.563Z,42.23
2018-07-16T15:17:27.273Z,42.25
2018-07-16T15:19:56.307Z,42.48
2018-07-16T15:22:24.801Z,42.31
2018-07-16T15:24:53.558Z,42.10
2018-07-16T15:27:22.429Z,42.03
2018-07-16T15:29:51.047Z,42.12
2018-07-16T15:32:19.531Z,42.26
2018-07-16T15:34:49.702Z,42.30
2018-07-16T15:37:18.709Z,42.40
2018-07-16T15:39:48.088Z,42.44
2018-07-16T15:42:17.309Z,42.17
2018-07-16T15:44:46.099Z,42.08
2018-07-16T15:47:14.754Z,41.97
2018-07-16T15:49:43.666Z,41.92
2018-07-16T15:52:12.477Z,41.58
2018-07-16T15:54:40.925Z,41.48
2018-07-16T15:57:10.055Z,41.26
2018-07-16T15:59:38.796Z,40.91
2018-07-16T16:02:07.581Z,40.60
2018-07-16T16:04:36.395Z,40.34
2018-07-16T16:07:07.245Z,40.31
2018-07-16T16:09:36.989Z,40.06
2018-07-16T16:12:05.874Z,39.47
2018-07-16T16:14:34.593Z,38.88
2018-07-16T16:17:03.298Z,38.73
2018-07-16T16:19:31.891Z,38.47
2018-07-16T16:22:00.785Z,38.01
2018-07-16T16:24:29.636Z,37.63
2018-07-16T16:26:58.161Z,37.22
2018-07-16T16:29:26.656Z,37.05
2018-07-16T16:31:55.905Z,36.91
2018-07-16T16:34:24.561Z,37.23
2018-07-16T16:36:53.052Z,37.80
2018-07-16T16:39:21.793Z,38.37
2018-07-16T16:41:50.717Z,38.78
2018-07-16T16:44:19.209Z,39.15
2018-07-16T16:46:48.475Z,39.38
2018-07-16T16:49:17.595Z,39.46
2018-07-16T16:51:46.097Z,39.50
2018-07-16T16:54:14.572Z,39.31
2018-07-16T16:56:43.665Z,39.30
2018-07-16T16:59:12.670Z,39.43
2018-07-16T17:01:42.082Z,39.50
2018-07-16T17:04:10.940Z,39.52
2018-07-16T17:06:39.375Z,39.42
2018-07-16T17:09:08.915Z,39.16
2018-07-16T17:11:37.609Z,38.67
2018-07-16T17:14:06.098Z,37.82
2018-07-16T17:16:34.885Z,36.82
2018-07-16T17:19:03.669Z,36.16
2018-07-16T17:21:32.141Z,35.50
2018-07-16T17:24:01.314Z,34.98
2018-07-16T17:26:30.342Z,34.50
2018-07-16T17:28:58.790Z,34.08
2018-07-16T17:31:27.597Z,33.58
2018-07-16T17:33:56.487Z,33.22
2018-07-16T17:36:25.537Z,32.98
2018-07-16T17:38:54.030Z,32.71
2018-07-16T17:41:23.054Z,32.49
2018-07-16T17:43:51.613Z,32.30
2018-07-16T17:46:20.132Z,32.09
2018-07-16T17:48:48.813Z,31.84
2018-07-16T17:51:18.238Z,31.68
2018-07-16T17:53:47.301Z,31.57
2018-07-16T17:56:16.635Z,31.44
2018-07-16T17:58:45.081Z,31.31
2018-07-16T18:01:14.097Z,31.14
2018-07-16T18:03:42.826Z,31.00
2018-07-16T18:06:11.246Z,30.90
2018-07-16T18:08:40.018Z,30.78
2018-07-16T18:11:08.913Z,30.70
2018-07-16T18:13:37.622Z,30.63
2018-07-16T18:16:06.836Z,30.49
2018-07-16T18:18:35.513Z,30.36
2018-07-16T18:21:04.051Z,30.25
2018-07-16T18:23:32.689Z,30.18
2018-07-16T18:26:01.648Z,30.10
2018-07-16T18:28:30.071Z,29.99
2018-07-16T18:30:58.794Z,29.91
2018-07-16T18:33:27.609Z,29.83
2018-07-16T18:35:58.926Z,29.74
2018-07-16T18:38:27.901Z,29.66
2018-07-16T18:40:56.744Z,29.55
2018-07-16T18:43:25.619Z,29.43
2018-07-16T18:45:54.083Z,29.33
2018-07-16T18:48:22.793Z,29.28
2018-07-16T18:50:51.933Z,29.19
2018-07-16T18:53:20.737Z,29.12
2018-07-16T18:55:49.467Z,29.03
2018-07-16T18:58:19.309Z,28.97
2018-07-16T19:00:48.937Z,28.92
2018-07-16T19:03:17.769Z,28.86
2018-07-16T19:05:47.025Z,28.79
2018-07-16T19:08:16.165Z,28.71
2018-07-16T19:10:44.957Z,28.64
2018-07-16T19:13:13.485Z,28.58
2018-07-16T19:15:41.955Z,28.49
2018-07-16T19:18:10.797Z,28.41
2018-07-16T19:20:39.648Z,28.34
2018-07-16T19:23:08.609Z,28.29
2018-07-16T19:25:37.378Z,28.22
2018-07-16T19:28:06.326Z,28.16
2018-07-16T19:30:35.374Z,28.09
2018-07-16T19:33:04.302Z,28.02
2018-07-16T19:35:32.800Z,27.94
2018-07-16T19:38:01.323Z,27.86
2018-07-16T19:40:30.781Z,27.75
2018-07-16T19:42:59.580Z,27.58
2018-07-16T19:45:28.129Z,27.44
2018-07-16T19:47:56.909Z,27.33
2018-07-16T19:50:25.370Z,27.22
2018-07-16T19:52:53.821Z,27.21
2018-07-16T19:55:22.868Z,27.14
2018-07-16T19:57:51.418Z,27.05
2018-07-16T20:00:19.876Z,26.99
2018-07-16T20:02:48.682Z,26.94
2018-07-16T20:05:17.388Z,26.89
2018-07-16T20:07:46.025Z,26.84
2018-07-16T20:10:14.813Z,26.77
2018-07-16T20:12:43.322Z,26.71
2018-07-16T20:15:17.129Z,26.66
2018-07-16T20:17:46.073Z,26.60
2018-07-16T20:20:14.620Z,26.50
2018-07-16T20:22:43.423Z,26.45
2018-07-16T20:25:11.881Z,26.40
2018-07-16T20:27:40.494Z,26.34
2018-07-16T20:30:10.054Z,26.26
2018-07-16T20:32:38.801Z,26.18
2018-07-16T20:35:07.486Z,26.11
2018-07-16T20:37:36.348Z,26.02
2018-07-16T20:40:05.126Z,25.98
2018-07-16T20:42:33.597Z,25.98
2018-07-16T20:45:02.732Z,25.95
2018-07-16T20:47:31.178Z,25.86
2018-07-16T20:49:59.654Z,25.75
2018-07-16T20:52:28.760Z,25.74
2018-07-16T20:54:57.561Z,25.71
2018-07-16T20:57:26.001Z,25.62
2018-07-16T20:59:54.877Z,25.51
2018-07-16T21:02:23.946Z,25.43
2018-07-16T21:04:52.401Z,25.32
2018-07-16T21:07:21.505Z,25.23
2018-07-16T21:09:50.274Z,25.15
2018-07-16T21:12:18.725Z,24.97
2018-07-16T21:14:47.407Z,25.12
2018-07-16T21:17:16.133Z,25.18
2018-07-16T21:19:44.721Z,25.18
2018-07-16T21:22:13.913Z,25.10
2018-07-16T21:24:42.505Z,24.99
2018-07-16T21:27:11.130Z,24.90
2018-07-16T21:29:39.977Z,24.82
2018-07-16T21:32:08.941Z,24.80
2018-07-16T21:34:37.529Z,24.83
2018-07-16T21:37:06.011Z,24.77
2018-07-16T21:39:34.489Z,24.70
2018-07-16T21:42:03.206Z,24.68
2018-07-16T21:44:32.233Z,24.63
2018-07-16T21:47:00.681Z,24.56
2018-07-16T21:49:29.160Z,24.50
2018-07-16T21:51:57.929Z,24.46
2018-07-16T21:54:26.353Z,24.42
2018-07-16T21:56:54.801Z,24.45
2018-07-16T21:59:23.923Z,24.49
2018-07-16T22:01:53.082Z,24.49
2018-07-16T22:04:21.927Z,24.39
2018-07-16T22:06:50.374Z,24.36
2018-07-16T22:09:19.094Z,24.36
2018-07-16T22:11:48.298Z,24.34
2018-07-16T22:14:17.170Z,24.27
2018-07-16T22:16:46.022Z,24.26
2018-07-16T22:19:14.761Z,24.23
2018-07-16T22:21:43.678Z,24.23
2018-07-16T22:24:12.389Z,24.24
2018-07-16T22:26:40.817Z,24.22
2018-07-16T22:29:09.726Z,24.17
2018-07-16T22:31:38.501Z,23.54
2018-07-16T22:34:07.457Z,24.08
2018-07-16T22:36:36.306Z,24.00
2018-07-16T22:39:06.853Z,23.96
2018-07-16T22:41:35.982Z,23.91
2018-07-16T22:44:04.505Z,23.88
2018-07-16T22:46:33.225Z,23.82
2018-07-16T22:49:01.997Z,23.75
2018-07-16T22:51:31.171Z,23.69
2018-07-16T22:53:59.701Z,23.68
2018-07-16T22:56:28.210Z,23.64
2018-07-16T22:58:57.220Z,23.62
2018-07-16T23:01:25.725Z,23.60
2018-07-16T23:03:54.209Z,23.56
2018-07-16T23:06:23.091Z,23.48
2018-07-16T23:08:51.798Z,23.47
2018-07-16T23:11:20.293Z,23.44
2018-07-16T23:13:48.765Z,23.36
2018-07-16T23:16:17.841Z,23.33
2018-07-16T23:18:47.402Z,23.28
2018-07-16T23:21:16.441Z,23.25
2018-07-16T23:23:44.902Z,23.23
2018-07-16T23:26:13.865Z,23.21
2018-07-16T23:28:42.357Z,23.19
2018-07-16T23:31:10.874Z,23.16
2018-07-16T23:33:39.585Z,23.13
2018-07-16T23:36:08.987Z,23.05
2018-07-16T23:38:37.561Z,22.99
2018-07-16T23:41:06.574Z,22.96
2018-07-16T23:43:35.235Z,22.89
2018-07-16T23:46:04.085Z,22.84
2018-07-16T23:48:32.642Z,22.80
2018-07-16T23:51:01.261Z,22.78
2018-07-16T23:53:29.767Z,22.71
2018-07-16T23:55:58.280Z,22.67
2018-07-16T23:58:27.449Z,22.66
